sensor_id;sensor_type;location;lat;lon;timestamp;pressure;altitude;pressure_sealevel;temperature;humidity
84696;BME280;74913;40.204;44.532;2024-02-23T00:02:24;88054.63;;;8.57;48.08
84696;BME280;74913;40.204;44.532;2024-02-23T00:04:50;88052.38;;;8.61;48.04
84696;BME280;74913;40.204;44.532;2024-02-23T00:07:16;88061.63;;;8.60;48.22
84696;BME280;74913;40.204;44.532;2024-02-23T00:09:41;88056.28;;;8.60;48.07
84696;BME280;74913;40.204;44.532;2024-02-23T00:12:07;88049.00;;;8.55;48.37
84696;BME280;74913;40.204;44.532;2024-02-23T00:14:34;88061.19;;;8.56;48.76
84696;BME280;74913;40.204;44.532;2024-02-23T00:17:02;88043.78;;;8.44;49.13
84696;BME280;74913;40.204;44.532;2024-02-23T00:19:32;88062.94;;;8.53;49.03
84696;BME280;74913;40.204;44.532;2024-02-23T00:21:58;88066.56;;;8.56;48.29
84696;BME280;74913;40.204;44.532;2024-02-23T00:24:25;88071.94;;;8.56;49.87
84696;BME280;74913;40.204;44.532;2024-02-23T00:26:50;88079.69;;;8.59;48.99
84696;BME280;74913;40.204;44.532;2024-02-23T00:29:17;88069.91;;;8.62;48.72
84696;BME280;74913;40.204;44.532;2024-02-23T00:31:42;88079.19;;;8.61;48.61
84696;BME280;74913;40.204;44.532;2024-02-23T00:34:10;88074.34;;;8.59;48.36
84696;BME280;74913;40.204;44.532;2024-02-23T00:36:42;88078.25;;;8.58;48.17
84696;BME280;74913;40.204;44.532;2024-02-23T00:39:08;88067.50;;;8.58;47.73
84696;BME280;74913;40.204;44.532;2024-02-23T00:41:34;88071.09;;;8.66;47.92
84696;BME280;74913;40.204;44.532;2024-02-23T00:44:00;88073.00;;;8.71;47.73
84696;BME280;74913;40.204;44.532;2024-02-23T00:46:26;88071.53;;;8.70;46.57
84696;BME280;74913;40.204;44.532;2024-02-23T00:48:52;88077.06;;;8.78;46.42
84696;BME280;74913;40.204;44.532;2024-02-23T00:51:17;88069.22;;;8.80;46.28
84696;BME280;74913;40.204;44.532;2024-02-23T00:53:43;88084.31;;;8.83;45.86
84696;BME280;74913;40.204;44.532;2024-02-23T00:56:09;88090.41;;;8.83;46.06
84696;BME280;74913;40.204;44.532;2024-02-23T00:58:34;88091.16;;;8.84;46.27
84696;BME280;74913;40.204;44.532;2024-02-23T01:01:00;88094.06;;;8.86;47.05
84696;BME280;74913;40.204;44.532;2024-02-23T01:03:26;88082.84;;;8.82;46.85
84696;BME280;74913;40.204;44.532;2024-02-23T01:05:51;88084.31;;;8.83;46.33
84696;BME280;74913;40.204;44.532;2024-02-23T01:08:17;88088.75;;;8.80;46.07
84696;BME280;74913;40.204;44.532;2024-02-23T01:10:43;88096.50;;;8.84;46.32
84696;BME280;74913;40.204;44.532;2024-02-23T01:13:08;88083.59;;;8.82;46.34
84696;BME280;74913;40.204;44.532;2024-02-23T01:15:34;88091.81;;;8.90;46.28
84696;BME280;74913;40.204;44.532;2024-02-23T01:18:00;88096.94;;;8.88;45.53
84696;BME280;74913;40.204;44.532;2024-02-23T01:20:25;88095.50;;;8.87;46.52
84696;BME280;74913;40.204;44.532;2024-02-23T01:22:51;88097.16;;;8.90;46.44
84696;BME280;74913;40.204;44.532;2024-02-23T01:25:17;88092.53;;;8.90;46.97
84696;BME280;74913;40.204;44.532;2024-02-23T01:27:43;88097.38;;;8.92;45.96
84696;BME280;74913;40.204;44.532;2024-02-23T01:30:11;88091.03;;;8.95;46.43
84696;BME280;74913;40.204;44.532;2024-02-23T01:32:37;88096.16;;;8.93;45.85
84696;BME280;74913;40.204;44.532;2024-02-23T01:35:05;88078.97;;;8.83;46.31
84696;BME280;74913;40.204;44.532;2024-02-23T01:37:31;88086.50;;;8.84;45.57
84696;BME280;74913;40.204;44.532;2024-02-23T01:39:57;88083.88;;;8.79;46.33
84696;BME280;74913;40.204;44.532;2024-02-23T01:42:24;88080.25;;;8.76;46.30
84696;BME280;74913;40.204;44.532;2024-02-23T01:44:51;88084.22;;;8.70;46.46
84696;BME280;74913;40.204;44.532;2024-02-23T01:47:17;88078.63;;;8.68;46.18
84696;BME280;74913;40.204;44.532;2024-02-23T01:49:43;88074.47;;;8.67;46.46
84696;BME280;74913;40.204;44.532;2024-02-23T01:52:11;88075.25;;;8.62;47.07
84696;BME280;74913;40.204;44.532;2024-02-23T01:54:37;88066.56;;;8.56;47.08
84696;BME280;74913;40.204;44.532;2024-02-23T01:57:03;88062.25;;;8.47;47.19
84696;BME280;74913;40.204;44.532;2024-02-23T01:59:29;88056.97;;;8.42;47.54
84696;BME280;74913;40.204;44.532;2024-02-23T02:01:55;88057.06;;;8.30;47.58
84696;BME280;74913;40.204;44.532;2024-02-23T02:04:21;88054.91;;;8.23;47.98
84696;BME280;74913;40.204;44.532;2024-02-23T02:06:47;88057.34;;;8.21;48.91
84696;BME280;74913;40.204;44.532;2024-02-23T02:09:14;88057.09;;;8.19;48.45
84696;BME280;74913;40.204;44.532;2024-02-23T02:11:49;88054.97;;;8.12;49.91
84696;BME280;74913;40.204;44.532;2024-02-23T02:14:15;88058.66;;;8.09;48.69
84696;BME280;74913;40.204;44.532;2024-02-23T02:16:41;88063.00;;;8.12;48.84
84696;BME280;74913;40.204;44.532;2024-02-23T02:19:07;88056.31;;;8.00;48.98
84696;BME280;74913;40.204;44.532;2024-02-23T02:21:33;88064.59;;;7.97;49.37
84696;BME280;74913;40.204;44.532;2024-02-23T02:23:59;88062.94;;;7.94;49.13
84696;BME280;74913;40.204;44.532;2024-02-23T02:26:25;88059.75;;;7.95;49.15
84696;BME280;74913;40.204;44.532;2024-02-23T02:28:50;88060.19;;;7.99;48.77
84696;BME280;74913;40.204;44.532;2024-02-23T02:31:17;88054.56;;;8.03;48.53
84696;BME280;74913;40.204;44.532;2024-02-23T02:33:43;88048.00;;;8.04;48.13
84696;BME280;74913;40.204;44.532;2024-02-23T02:36:09;88060.56;;;8.14;48.16
84696;BME280;74913;40.204;44.532;2024-02-23T02:38:35;88051.31;;;8.15;47.41
84696;BME280;74913;40.204;44.532;2024-02-23T02:41:01;88058.78;;;8.22;47.74
84696;BME280;74913;40.204;44.532;2024-02-23T02:43:27;88068.28;;;8.23;47.17
84696;BME280;74913;40.204;44.532;2024-02-23T02:45:53;88063.66;;;8.24;47.25
84696;BME280;74913;40.204;44.532;2024-02-23T02:48:18;88067.56;;;8.28;47.51
84696;BME280;74913;40.204;44.532;2024-02-23T02:50:44;88069.94;;;8.32;47.11
84696;BME280;74913;40.204;44.532;2024-02-23T02:53:11;88056.50;;;8.37;47.05
84696;BME280;74913;40.204;44.532;2024-02-23T02:55:36;88056.50;;;8.37;47.31
84696;BME280;74913;40.204;44.532;2024-02-23T02:58:02;88061.38;;;8.39;46.80
84696;BME280;74913;40.204;44.532;2024-02-23T03:00:28;88072.00;;;8.45;46.21
84696;BME280;74913;40.204;44.532;2024-02-23T03:02:54;88064.66;;;8.51;46.33
84696;BME280;74913;40.204;44.532;2024-02-23T03:05:19;88064.09;;;8.58;46.68
84696;BME280;74913;40.204;44.532;2024-02-23T03:07:45;88068.47;;;8.61;46.04
84696;BME280;74913;40.204;44.532;2024-02-23T03:10:11;88083.22;;;8.73;46.42
84696;BME280;74913;40.204;44.532;2024-02-23T03:12:37;88086.78;;;8.81;46.48
84696;BME280;74913;40.204;44.532;2024-02-23T03:15:02;88097.22;;;8.84;45.61
84696;BME280;74913;40.204;44.532;2024-02-23T03:17:29;88086.78;;;8.81;45.46
84696;BME280;74913;40.204;44.532;2024-02-23T03:19:54;88112.31;;;8.87;45.93
84696;BME280;74913;40.204;44.532;2024-02-23T03:22:20;88118.28;;;8.75;47.18
84696;BME280;74913;40.204;44.532;2024-02-23T03:24:46;88125.00;;;8.63;47.52
84696;BME280;74913;40.204;44.532;2024-02-23T03:27:11;88129.44;;;8.55;48.14
84696;BME280;74913;40.204;44.532;2024-02-23T03:29:38;88127.28;;;8.53;47.85
84696;BME280;74913;40.204;44.532;2024-02-23T03:32:04;88128.22;;;8.56;47.90
84696;BME280;74913;40.204;44.532;2024-02-23T03:34:30;88140.09;;;8.66;47.80
84696;BME280;74913;40.204;44.532;2024-02-23T03:36:55;88145.16;;;8.69;47.38
84696;BME280;74913;40.204;44.532;2024-02-23T03:39:21;88151.97;;;8.70;47.35
84696;BME280;74913;40.204;44.532;2024-02-23T03:41:47;88166.91;;;8.66;47.85
84696;BME280;74913;40.204;44.532;2024-02-23T03:44:12;88178.63;;;8.63;48.76
84696;BME280;74913;40.204;44.532;2024-02-23T03:46:38;88179.16;;;8.56;48.67
84696;BME280;74913;40.204;44.532;2024-02-23T03:49:03;88184.31;;;8.54;49.11
84696;BME280;74913;40.204;44.532;2024-02-23T03:51:29;88179.72;;;8.49;48.69
84696;BME280;74913;40.204;44.532;2024-02-23T03:53:55;88185.75;;;8.55;49.51
84696;BME280;74913;40.204;44.532;2024-02-23T03:56:20;88170.25;;;8.42;49.81
84696;BME280;74913;40.204;44.532;2024-02-23T03:58:46;88196.72;;;8.57;49.37
84696;BME280;74913;40.204;44.532;2024-02-23T04:01:11;88199.63;;;8.59;49.44
84696;BME280;74913;40.204;44.532;2024-02-23T04:03:37;88201.78;;;8.60;50.59
84696;BME280;74913;40.204;44.532;2024-02-23T04:06:03;88201.06;;;8.60;50.49
84696;BME280;74913;40.204;44.532;2024-02-23T04:08:28;88207.16;;;8.60;50.82
84696;BME280;74913;40.204;44.532;2024-02-23T04:10:54;88206.72;;;8.56;50.45
84696;BME280;74913;40.204;44.532;2024-02-23T04:13:19;88220.59;;;8.55;50.75
84696;BME280;74913;40.204;44.532;2024-02-23T04:15:45;88229.88;;;8.54;51.53
84696;BME280;74913;40.204;44.532;2024-02-23T04:18:11;88231.63;;;8.51;51.64
84696;BME280;74913;40.204;44.532;2024-02-23T04:20:37;88231.66;;;8.40;52.34
84696;BME280;74913;40.204;44.532;2024-02-23T04:23:02;88243.56;;;8.45;52.37
84696;BME280;74913;40.204;44.532;2024-02-23T04:25:28;88249.69;;;8.39;52.02
84696;BME280;74913;40.204;44.532;2024-02-23T04:27:53;88253.13;;;8.40;52.99
84696;BME280;74913;40.204;44.532;2024-02-23T04:30:19;88260.19;;;8.37;52.48
84696;BME280;74913;40.204;44.532;2024-02-23T04:32:45;88264.81;;;8.37;52.52
84696;BME280;74913;40.204;44.532;2024-02-23T04:35:10;88242.72;;;8.25;53.23
84696;BME280;74913;40.204;44.532;2024-02-23T04:37:36;88269.19;;;8.40;52.87
84696;BME280;74913;40.204;44.532;2024-02-23T04:40:03;88271.41;;;8.42;53.35
84696;BME280;74913;40.204;44.532;2024-02-23T04:42:30;88276.03;;;8.41;53.09
84696;BME280;74913;40.204;44.532;2024-02-23T04:44:56;88279.66;;;8.44;53.20
84696;BME280;74913;40.204;44.532;2024-02-23T04:47:22;88270.94;;;8.37;52.50
84696;BME280;74913;40.204;44.532;2024-02-23T04:49:47;88276.81;;;8.30;52.32
84696;BME280;74913;40.204;44.532;2024-02-23T04:52:14;88288.59;;;8.05;54.10
84696;BME280;74913;40.204;44.532;2024-02-23T04:54:40;88279.03;;;7.58;54.75
84696;BME280;74913;40.204;44.532;2024-02-23T04:57:05;88299.78;;;7.30;55.17
84696;BME280;74913;40.204;44.532;2024-02-23T04:59:31;88296.88;;;7.22;55.28
84696;BME280;74913;40.204;44.532;2024-02-23T05:01:57;88304.91;;;7.17;57.72
84696;BME280;74913;40.204;44.532;2024-02-23T05:04:23;88304.44;;;7.13;55.75
84696;BME280;74913;40.204;44.532;2024-02-23T05:06:49;88302.97;;;7.11;55.90
84696;BME280;74913;40.204;44.532;2024-02-23T05:09:14;88302.25;;;7.11;55.92
84696;BME280;74913;40.204;44.532;2024-02-23T05:11:40;88314.16;;;7.16;56.53
84696;BME280;74913;40.204;44.532;2024-02-23T05:14:05;88315.13;;;7.01;56.71
84696;BME280;74913;40.204;44.532;2024-02-23T05:16:31;88256.81;;;6.50;56.55
84696;BME280;74913;40.204;44.532;2024-02-23T05:18:57;88318.06;;;6.92;57.32
84696;BME280;74913;40.204;44.532;2024-02-23T05:21:22;88318.53;;;6.74;57.68
84696;BME280;74913;40.204;44.532;2024-02-23T05:23:48;88311.25;;;6.58;58.03
84696;BME280;74913;40.204;44.532;2024-02-23T05:26:14;88298.09;;;6.49;57.99
84696;BME280;74913;40.204;44.532;2024-02-23T05:28:39;88321.69;;;6.73;57.61
84696;BME280;74913;40.204;44.532;2024-02-23T05:31:05;88308.59;;;6.86;57.72
84696;BME280;74913;40.204;44.532;2024-02-23T05:33:30;88325.34;;;6.97;57.86
84696;BME280;74913;40.204;44.532;2024-02-23T05:35:56;88329.00;;;6.94;58.09
84696;BME280;74913;40.204;44.532;2024-02-23T05:38:22;88320.97;;;6.89;57.22
84696;BME280;74913;40.204;44.532;2024-02-23T05:40:47;88340.41;;;7.11;57.41
84696;BME280;74913;40.204;44.532;2024-02-23T05:43:14;88343.09;;;7.28;56.99
84696;BME280;74913;40.204;44.532;2024-02-23T05:45:39;88340.88;;;7.38;56.31
84696;BME280;74913;40.204;44.532;2024-02-23T05:48:05;88346.72;;;7.42;57.06
84696;BME280;74913;40.204;44.532;2024-02-23T05:50:32;88350.13;;;7.48;57.05
84696;BME280;74913;40.204;44.532;2024-02-23T05:52:57;88342.31;;;7.50;56.75
84696;BME280;74913;40.204;44.532;2024-02-23T05:55:23;88348.66;;;7.58;56.51
84696;BME280;74913;40.204;44.532;2024-02-23T05:57:49;88350.56;;;7.74;56.00
84696;BME280;74913;40.204;44.532;2024-02-23T06:00:16;88356.34;;;7.89;55.77
84696;BME280;74913;40.204;44.532;2024-02-23T06:02:44;88345.84;;;8.02;55.90
84696;BME280;74913;40.204;44.532;2024-02-23T06:05:12;88336.63;;;7.98;55.71
84696;BME280;74913;40.204;44.532;2024-02-23T06:07:37;88348.00;;;8.09;55.70
84696;BME280;74913;40.204;44.532;2024-02-23T06:10:04;88355.78;;;8.18;55.61
84696;BME280;74913;40.204;44.532;2024-02-23T06:12:30;88345.06;;;8.18;55.27
84696;BME280;74913;40.204;44.532;2024-02-23T06:14:56;88345.28;;;8.20;54.96
84696;BME280;74913;40.204;44.532;2024-02-23T06:17:23;88342.84;;;8.22;55.49
84696;BME280;74913;40.204;44.532;2024-02-23T06:19:49;88335.78;;;8.25;54.50
84696;BME280;74913;40.204;44.532;2024-02-23T06:22:15;88342.13;;;8.27;54.87
84696;BME280;74913;40.204;44.532;2024-02-23T06:24:48;88326.75;;;8.33;54.33
84696;BME280;74913;40.204;44.532;2024-02-23T06:27:14;88275.72;;;8.04;54.11
84696;BME280;74913;40.204;44.532;2024-02-23T06:29:40;88336.19;;;8.46;54.25
84696;BME280;74913;40.204;44.532;2024-02-23T06:32:05;88342.50;;;8.54;54.31
84696;BME280;74913;40.204;44.532;2024-02-23T06:34:31;88343.38;;;8.67;54.69
84696;BME280;74913;40.204;44.532;2024-02-23T06:36:57;88347.50;;;8.74;55.10
84696;BME280;74913;40.204;44.532;2024-02-23T06:39:23;88341.19;;;8.71;55.76
84696;BME280;74913;40.204;44.532;2024-02-23T06:41:48;88344.34;;;8.70;55.55
84696;BME280;74913;40.204;44.532;2024-02-23T06:44:14;88349.03;;;8.64;55.65
84696;BME280;74913;40.204;44.532;2024-02-23T06:46:40;88358.78;;;8.61;56.02
84696;BME280;74913;40.204;44.532;2024-02-23T06:49:07;88348.59;;;8.54;57.13
84696;BME280;74913;40.204;44.532;2024-02-23T06:51:32;88357.34;;;8.55;56.70
84696;BME280;74913;40.204;44.532;2024-02-23T06:53:58;88361.03;;;8.52;56.70
84696;BME280;74913;40.204;44.532;2024-02-23T06:56:23;88364.94;;;8.51;57.67
84696;BME280;74913;40.204;44.532;2024-02-23T06:58:49;88372.00;;;8.54;57.33
84696;BME280;74913;40.204;44.532;2024-02-23T07:01:15;88371.97;;;8.59;56.75
84696;BME280;74913;40.204;44.532;2024-02-23T07:03:41;88368.50;;;8.64;56.89
84696;BME280;74913;40.204;44.532;2024-02-23T07:06:08;88365.63;;;8.57;57.14
84696;BME280;74913;40.204;44.532;2024-02-23T07:08:37;88372.16;;;8.67;56.74
84696;BME280;74913;40.204;44.532;2024-02-23T07:11:03;88367.38;;;8.54;56.77
84696;BME280;74913;40.204;44.532;2024-02-23T07:13:28;88370.75;;;8.55;57.48
84696;BME280;74913;40.204;44.532;2024-02-23T07:15:55;88376.13;;;8.55;57.00
84696;BME280;74913;40.204;44.532;2024-02-23T07:18:21;88362.97;;;8.57;56.83
84696;BME280;74913;40.204;44.532;2024-02-23T07:20:47;88365.34;;;8.66;56.83
84696;BME280;74913;40.204;44.532;2024-02-23T07:23:13;88372.63;;;8.71;56.64
84696;BME280;74913;40.204;44.532;2024-02-23T07:25:38;88363.34;;;8.72;56.13
84696;BME280;74913;40.204;44.532;2024-02-23T07:28:04;88366.28;;;8.74;55.86
84696;BME280;74913;40.204;44.532;2024-02-23T07:30:30;88370.63;;;8.77;57.57
84696;BME280;74913;40.204;44.532;2024-02-23T07:32:56;88355.28;;;8.72;56.55
84696;BME280;74913;40.204;44.532;2024-02-23T07:35:21;88366.53;;;8.70;56.33
84696;BME280;74913;40.204;44.532;2024-02-23T07:37:47;88361.91;;;8.71;56.13
84696;BME280;74913;40.204;44.532;2024-02-23T07:40:13;88346.78;;;8.68;55.77
84696;BME280;74913;40.204;44.532;2024-02-23T07:42:39;88351.63;;;8.75;55.91
84696;BME280;74913;40.204;44.532;2024-02-23T07:45:05;88351.09;;;8.82;56.51
84696;BME280;74913;40.204;44.532;2024-02-23T07:47:32;88345.22;;;8.89;56.17
84696;BME280;74913;40.204;44.532;2024-02-23T07:49:58;88340.31;;;8.93;55.59
84696;BME280;74913;40.204;44.532;2024-02-23T07:52:23;88344.69;;;8.96;57.14
84696;BME280;74913;40.204;44.532;2024-02-23T07:54:51;88334.97;;;8.87;55.98
84696;BME280;74913;40.204;44.532;2024-02-23T07:57:18;88342.22;;;8.98;55.86
84696;BME280;74913;40.204;44.532;2024-02-23T07:59:43;88342.44;;;9.00;55.49
84696;BME280;74913;40.204;44.532;2024-02-23T08:02:09;88338.31;;;8.99;55.58
84696;BME280;74913;40.204;44.532;2024-02-23T08:04:35;88346.59;;;9.01;55.83
84696;BME280;74913;40.204;44.532;2024-02-23T08:07:00;88347.78;;;9.06;55.65
84696;BME280;74913;40.204;44.532;2024-02-23T08:09:26;88347.22;;;9.13;55.00
84696;BME280;74913;40.204;44.532;2024-02-23T08:11:52;88349.88;;;9.18;55.65
84696;BME280;74913;40.204;44.532;2024-02-23T08:14:17;88346.69;;;9.20;55.69
84696;BME280;74913;40.204;44.532;2024-02-23T08:16:43;88343.53;;;9.21;54.94
84696;BME280;74913;40.204;44.532;2024-02-23T08:19:09;88351.34;;;9.19;54.84
84696;BME280;74913;40.204;44.532;2024-02-23T08:21:34;88354.50;;;9.18;54.66
84696;BME280;74913;40.204;44.532;2024-02-23T08:24:00;88352.59;;;9.13;55.02
84696;BME280;74913;40.204;44.532;2024-02-23T08:26:26;88355.50;;;9.15;54.82
84696;BME280;74913;40.204;44.532;2024-02-23T08:28:51;88339.66;;;9.17;54.54
84696;BME280;74913;40.204;44.532;2024-02-23T08:31:17;88351.06;;;9.23;54.21
84696;BME280;74913;40.204;44.532;2024-02-23T08:33:42;88346.63;;;9.31;53.66
84696;BME280;74913;40.204;44.532;2024-02-23T08:36:08;88315.91;;;9.26;54.61
84696;BME280;74913;40.204;44.532;2024-02-23T08:38:33;88333.03;;;9.47;53.92
84696;BME280;74913;40.204;44.532;2024-02-23T08:40:59;88342.06;;;9.50;52.71
84696;BME280;74913;40.204;44.532;2024-02-23T08:43:25;88344.28;;;9.46;52.94
84696;BME280;74913;40.204;44.532;2024-02-23T08:45:50;88333.78;;;9.48;53.50
84696;BME280;74913;40.204;44.532;2024-02-23T08:48:17;88338.31;;;9.58;53.11
84696;BME280;74913;40.204;44.532;2024-02-23T08:50:44;88331.72;;;9.59;52.27
84696;BME280;74913;40.204;44.532;2024-02-23T08:53:09;88332.41;;;9.65;52.24
84696;BME280;74913;40.204;44.532;2024-02-23T08:55:35;88338.66;;;9.74;52.04
84696;BME280;74913;40.204;44.532;2024-02-23T08:58:00;88332.13;;;9.93;52.79
84696;BME280;74913;40.204;44.532;2024-02-23T09:00:26;88327.22;;;10.21;51.67
84696;BME280;74913;40.204;44.532;2024-02-23T09:02:52;88327.16;;;10.46;50.81
84696;BME280;74913;40.204;44.532;2024-02-23T09:05:17;88323.81;;;10.58;49.58
84696;BME280;74913;40.204;44.532;2024-02-23T09:07:43;88319.53;;;10.68;48.82
84696;BME280;74913;40.204;44.532;2024-02-23T09:10:10;88322.88;;;10.74;48.51
84696;BME280;74913;40.204;44.532;2024-02-23T09:12:37;88318.34;;;10.82;47.99
84696;BME280;74913;40.204;44.532;2024-02-23T09:15:03;88316.31;;;10.88;48.07
84696;BME280;74913;40.204;44.532;2024-02-23T09:17:28;88330.66;;;10.97;46.96
84696;BME280;74913;40.204;44.532;2024-02-23T09:19:54;88326.00;;;10.78;47.38
84696;BME280;74913;40.204;44.532;2024-02-23T09:22:20;88321.41;;;10.73;46.50
84696;BME280;74913;40.204;44.532;2024-02-23T09:24:45;88323.00;;;10.63;47.53
84696;BME280;74913;40.204;44.532;2024-02-23T09:27:11;88321.66;;;10.57;47.48
84696;BME280;74913;40.204;44.532;2024-02-23T09:29:37;88331.47;;;10.54;47.59
84696;BME280;74913;40.204;44.532;2024-02-23T09:32:03;88328.69;;;10.41;47.40
84696;BME280;74913;40.204;44.532;2024-02-23T09:34:30;88327.38;;;10.29;46.72
84696;BME280;74913;40.204;44.532;2024-02-23T09:36:56;88327.47;;;10.18;47.49
84696;BME280;74913;40.204;44.532;2024-02-23T09:39:21;88330.69;;;10.16;47.24
84696;BME280;74913;40.204;44.532;2024-02-23T09:41:50;88314.34;;;10.14;47.68
84696;BME280;74913;40.204;44.532;2024-02-23T09:44:18;88335.44;;;10.29;46.70
84696;BME280;74913;40.204;44.532;2024-02-23T09:46:43;88333.91;;;10.34;47.41
84696;BME280;74913;40.204;44.532;2024-02-23T09:49:11;88334.06;;;10.41;46.60
84696;BME280;74913;40.204;44.532;2024-02-23T09:51:37;88329.25;;;10.53;46.65
84696;BME280;74913;40.204;44.532;2024-02-23T09:54:04;88312.25;;;10.63;46.14
84696;BME280;74913;40.204;44.532;2024-02-23T09:56:30;88319.38;;;10.79;46.27
84696;BME280;74913;40.204;44.532;2024-02-23T09:58:58;88320.22;;;10.87;46.00
84696;BME280;74913;40.204;44.532;2024-02-23T10:01:28;88328.16;;;10.99;45.89
84696;BME280;74913;40.204;44.532;2024-02-23T10:04:02;88315.91;;;10.84;46.70
84696;BME280;74913;40.204;44.532;2024-02-23T10:06:32;88317.34;;;10.85;46.28
84696;BME280;74913;40.204;44.532;2024-02-23T10:08:57;88320.69;;;10.91;45.79
84696;BME280;74913;40.204;44.532;2024-02-23T10:11:24;88321.56;;;11.00;46.09
84696;BME280;74913;40.204;44.532;2024-02-23T10:13:51;88316.59;;;11.04;46.51
84696;BME280;74913;40.204;44.532;2024-02-23T10:16:20;88306.47;;;11.10;46.04
84696;BME280;74913;40.204;44.532;2024-02-23T10:18:49;88312.44;;;11.03;45.68
84696;BME280;74913;40.204;44.532;2024-02-23T10:21:16;88319.16;;;10.96;45.52
84696;BME280;74913;40.204;44.532;2024-02-23T10:23:42;88313.69;;;11.02;45.50
84696;BME280;74913;40.204;44.532;2024-02-23T10:26:09;88314.72;;;10.99;45.40
84696;BME280;74913;40.204;44.532;2024-02-23T10:28:38;88314.72;;;10.99;45.07
84696;BME280;74913;40.204;44.532;2024-02-23T10:31:06;88309.53;;;11.01;44.72
84696;BME280;74913;40.204;44.532;2024-02-23T10:33:32;88299.56;;;10.95;45.32
84696;BME280;74913;40.204;44.532;2024-02-23T10:36:00;88304.66;;;10.99;44.88
84696;BME280;74913;40.204;44.532;2024-02-23T10:38:27;88303.66;;;11.02;44.71
84696;BME280;74913;40.204;44.532;2024-02-23T10:40:55;88308.50;;;11.04;44.75
84696;BME280;74913;40.204;44.532;2024-02-23T10:43:30;88309.47;;;11.06;43.96
84696;BME280;74913;40.204;44.532;2024-02-23T10:45:58;88305.81;;;11.04;43.99
84696;BME280;74913;40.204;44.532;2024-02-23T10:48:28;88303.66;;;11.02;44.07
84696;BME280;74913;40.204;44.532;2024-02-23T10:50:56;88288.81;;;10.95;43.97
84696;BME280;74913;40.204;44.532;2024-02-23T10:53:30;88293.31;;;10.87;42.83
84696;BME280;74913;40.204;44.532;2024-02-23T10:55:57;88293.41;;;10.82;43.18
84696;BME280;74913;40.204;44.532;2024-02-23T10:58:26;88311.06;;;10.96;43.64
84696;BME280;74913;40.204;44.532;2024-02-23T11:01:07;88302.31;;;11.09;41.64
84696;BME280;74913;40.204;44.532;2024-02-23T11:03:38;88315.56;;;11.07;42.61
84696;BME280;74913;40.204;44.532;2024-02-23T11:06:07;88308.31;;;11.02;43.09
84696;BME280;74913;40.204;44.532;2024-02-23T11:08:33;88310.34;;;10.95;42.35
84696;BME280;74913;40.204;44.532;2024-02-23T11:11:11;88298.28;;;10.83;41.79
84696;BME280;74913;40.204;44.532;2024-02-23T11:13:37;88311.81;;;10.78;43.22
84696;BME280;74913;40.204;44.532;2024-02-23T11:16:07;88305.06;;;10.71;40.91
84696;BME280;74913;40.204;44.532;2024-02-23T11:18:38;88322.44;;;10.70;41.95
84696;BME280;74913;40.204;44.532;2024-02-23T11:21:04;88318.06;;;10.67;41.04
84696;BME280;74913;40.204;44.532;2024-02-23T11:23:43;88316.91;;;10.63;40.70
84696;BME280;74913;40.204;44.532;2024-02-23T11:26:12;88320.03;;;10.48;42.31
84696;BME280;74913;40.204;44.532;2024-02-23T11:28:43;88325.47;;;10.43;42.66
84696;BME280;74913;40.204;44.532;2024-02-23T11:31:16;88324.31;;;10.38;41.96
84696;BME280;74913;40.204;44.532;2024-02-23T11:33:54;88318.19;;;10.38;42.16
84696;BME280;74913;40.204;44.532;2024-02-23T11:36:30;88318.72;;;10.36;42.74
84696;BME280;74913;40.204;44.532;2024-02-23T11:38:59;88326.34;;;10.32;43.27
84696;BME280;74913;40.204;44.532;2024-02-23T11:41:26;88324.47;;;10.27;43.92
84696;BME280;74913;40.204;44.532;2024-02-23T11:43:53;88319.78;;;10.27;44.22
84696;BME280;74913;40.204;44.532;2024-02-23T11:46:19;88327.38;;;10.29;43.66
84696;BME280;74913;40.204;44.532;2024-02-23T11:48:45;88323.00;;;10.26;44.55
84696;BME280;74913;40.204;44.532;2024-02-23T11:51:23;88324.00;;;10.23;43.87
84696;BME280;74913;40.204;44.532;2024-02-23T11:53:52;88322.78;;;10.24;44.08
84696;BME280;74913;40.204;44.532;2024-02-23T11:56:19;88320.25;;;10.32;44.08
84696;BME280;74913;40.204;44.532;2024-02-23T11:58:46;88323.88;;;10.34;43.56
84696;BME280;74913;40.204;44.532;2024-02-23T12:01:11;88333.16;;;10.33;44.12
84696;BME280;74913;40.204;44.532;2024-02-23T12:03:37;88323.22;;;10.28;44.04
84696;BME280;74913;40.204;44.532;2024-02-23T12:06:05;88323.72;;;10.26;43.69
84696;BME280;74913;40.204;44.532;2024-02-23T12:08:31;88324.66;;;10.29;43.96
84696;BME280;74913;40.204;44.532;2024-02-23T12:11:04;88337.09;;;10.32;44.50
84696;BME280;74913;40.204;44.532;2024-02-23T12:13:30;88338.44;;;9.96;45.79
84696;BME280;74913;40.204;44.532;2024-02-23T12:15:57;88338.75;;;9.38;46.37
84696;BME280;74913;40.204;44.532;2024-02-23T12:18:23;88336.16;;;8.92;49.09
84696;BME280;74913;40.204;44.532;2024-02-23T12:20:52;88361.03;;;8.52;50.23
84696;BME280;74913;40.204;44.532;2024-02-23T12:23:18;88373.31;;;8.30;50.80
84696;BME280;74913;40.204;44.532;2024-02-23T12:25:58;88385.28;;;8.07;52.35
84696;BME280;74913;40.204;44.532;2024-02-23T12:28:25;88389.78;;;7.71;53.55
84696;BME280;74913;40.204;44.532;2024-02-23T12:31:01;88393.19;;;7.50;55.79
84696;BME280;74913;40.204;44.532;2024-02-23T12:33:35;88378.84;;;7.20;56.75
84696;BME280;74913;40.204;44.532;2024-02-23T12:36:02;88375.44;;;7.02;56.24
84696;BME280;74913;40.204;44.532;2024-02-23T12:38:28;88380.56;;;7.00;55.96
84696;BME280;74913;40.204;44.532;2024-02-23T12:40:54;88381.28;;;6.95;56.58
84696;BME280;74913;40.204;44.532;2024-02-23T12:43:20;88390.25;;;7.09;55.74
84696;BME280;74913;40.204;44.532;2024-02-23T12:45:49;88392.97;;;7.03;58.09
84696;BME280;74913;40.204;44.532;2024-02-23T12:48:15;88388.56;;;7.17;56.58
84696;BME280;74913;40.204;44.532;2024-02-23T12:50:42;88401.25;;;7.39;56.40
84696;BME280;74913;40.204;44.532;2024-02-23T12:53:33;88376.38;;;7.55;56.21
84696;BME280;74913;40.204;44.532;2024-02-23T12:56:04;88372.50;;;7.61;55.37